Terminal Aerodrome Forecast
Issued by NWS

Home | Current Version | Previous Version | Text Only | Print | Product List | Glossary On
Versions: 1 2 3 4 5 6 7 8 9 10 11 12 13
000
FTUS44 KLZK 051135
TAFLIT
TAF
KLIT 051135Z 0512/0612 15003KT P6SM VCSH SCT050 BKN100 BKN250
     FM051500 21005KT P6SM VCSH SCT050 BKN100 BKN250
     FM051800 22008KT P6SM VCTS SCT050CB BKN100 BKN250
      TEMPO 0519/0522 VRB15G25KT 3SM TSRA SCT020 BKN040CB OVC080=

USA.gov is the U.S. government's official web portal to all federal, state and local government web resources and services.